• Join FlightAware (Why Join?)
  • Login
  • US Flag 
12:53PM EDT


 

Airport Tracker/Info


-or-


 

Live Flight TrackerFlight Track Log ✈ G52652 ✈ 01-Nov-2013 ✈ ZGWZ / WUZ - ZGNN / NNG

Flight Track Log - Related Links

Times and Time Zones

All times are in EDT time to prevent confusion due to time zone crossing. See the G52652 flight status page for this flight to view local times or setup timezone preferences in your user account.

Time Position Orientation Groundspeed Altitude Reporting Facility
EDT Latitude Longitude Course Direction KTS MPH feet Rate Location/Type
11:39PM 23.2921 110.6310 254° West  Level Estimated
11:40PM 23.2736 110.5625 254° West  Level Estimated
11:41PM 23.2552 110.4940 254° West  Level Estimated
11:42PM 23.2367 110.4256 254° West  Level Estimated
11:43PM 23.2181 110.3572 254° West  Level Estimated
11:44PM 23.1996 110.2888 254° West  Level Estimated
11:45PM 23.1810 110.2204 254° West  Level Estimated
11:46PM 23.1624 110.1521 254° West  Level Estimated
11:47PM 23.1437 110.0837 253° West  Level Estimated
11:48PM 23.1251 110.0154 253° West  Level Estimated
11:49PM 23.1064 109.9471 253° West  Level Estimated
11:50PM 23.0876 109.8788 253° West  Level Estimated
11:51PM 23.0689 109.8106 253° West  Level Estimated
11:52PM 23.0501 109.7423 253° West  Level Estimated
11:53PM 23.0313 109.6741 253° West  Level Estimated
11:54PM 23.0124 109.6059 253° West  Level Estimated
11:55PM 22.9935 109.5377 253° West  Level Estimated
11:56PM 22.9746 109.4696 253° West  Level Estimated
11:57PM 22.9557 109.4014 253° West  Level Estimated
11:58PM 22.9367 109.3333 253° West  Level Estimated
11:59PM 22.9177 109.2652 253° West  Level Estimated
12:00AM 22.8987 109.1971 253° West  Level Estimated
12:01AM 22.8797 109.1290 253° West  Level Estimated
12:02AM 22.8606 109.0610 253° West  Level Estimated
12:03AM 22.8415 108.9929 253° West  Level Estimated
12:04AM 22.8223 108.9249 253° West  Level Estimated
12:05AM 22.8032 108.8569 253° West  Level Estimated
12:06AM 22.7840 108.7889 253° West  Level Estimated
12:07AM 22.7647 108.7210 253° West  Level Estimated
12:08AM 22.7455 108.6531 253° West  Level Estimated
12:09AM 22.7262 108.5851 253° West  Level Estimated
12:10AM 22.7069 108.5172 253° West  Level Estimated
12:11AM 22.6875 108.4493 253° West  Level Estimated
12:12AM 22.6682 108.3815 253° West  Level Estimated
12:13AM 22.6488 108.3137 253° West  Level Estimated
12:14AM 22.6293 108.2458 253° West  Level Estimated
12:15AM 22.6099 108.1780 253° West  Level Estimated
12:16AM 22.6083 108.1724 253° West  Level Estimated
12:17AM 22.6083 108.1724 148° Southeast  Level Estimated
12:18AM 22.6083 108.1724 148° Southeast  Level Estimated
12:19AM 22.6083 108.1724 148° Southeast  Level Estimated
12:20AM 22.6083 108.1724 148° Southeast  Level Estimated
12:21AM 22.6083 108.1724 148° Southeast  Level Estimated
12:22AM 22.6083 108.1724 148° Southeast  Level Estimated